Time;durP1;ratioP1;P1;durP2;ratioP2;P2;SDS_P1;SDS_P2;PMS_P1;PMS_P2;Temp;Humidity;BMP_temperature;BMP_pressure;BME280_temperature;BME280_humidity;BME280_pressure;Samples;Min_cycle;Max_cycle;Signal;HPM_P1;HPM_P2
2023/03/23 00:01:01;;;;;;;16.08;9.23;;;;;;;8.85;100.00;99990.66;4877785;29;20079;-73
2023/03/23 00:03:28;;;;;;;17.80;10.00;;;;;;;8.86;100.00;99980.94;4869156;29;20136;-73
2023/03/23 00:06:06;;;;;;;20.02;11.35;;;;;;;8.87;100.00;99972.13;4862260;29;20048;-73
2023/03/23 00:08:37;;;;;;;25.70;13.80;;;;;;;8.89;100.00;99972.88;4846228;29;20863;-73
2023/03/23 00:11:07;;;;;;;23.98;13.77;;;;;;;8.91;100.00;99978.91;4861919;29;20416;-73
2023/03/23 00:13:33;;;;;;;26.40;14.63;;;;;;;8.92;100.00;99980.63;4863734;29;20041;-73
2023/03/23 00:15:58;;;;;;;28.63;14.98;;;;;;;8.94;100.00;99978.78;4879130;29;20078;-74
2023/03/23 00:18:25;;;;;;;30.50;15.93;;;;;;;8.95;100.00;99967.28;4864254;29;20048;-73
2023/03/23 00:20:52;;;;;;;30.77;15.73;;;;;;;8.95;100.00;99985.75;4862864;29;20071;-73
2023/03/23 00:23:19;;;;;;;32.92;15.77;;;;;;;8.95;100.00;99972.56;4846171;29;20151;-73
2023/03/23 00:25:46;;;;;;;29.25;15.55;;;;;;;8.93;100.00;99969.16;4878400;29;20107;-73
2023/03/23 00:28:12;;;;;;;23.02;13.60;;;;;;;8.92;100.00;99972.72;4865405;29;20373;-74
2023/03/23 00:30:39;;;;;;;27.05;14.93;;;;;;;8.90;100.00;99972.81;4879473;29;20096;-73
2023/03/23 00:33:05;;;;;;;22.27;12.88;;;;;;;8.87;100.00;99969.47;4880287;29;20560;-73
2023/03/23 00:35:30;;;;;;;19.13;10.82;;;;;;;8.82;100.00;99964.41;4877958;29;20046;-74
2023/03/23 00:37:58;;;;;;;18.52;9.75;;;;;;;8.76;100.00;99965.59;4881139;29;20512;-74
2023/03/23 00:40:24;;;;;;;14.98;8.48;;;;;;;8.69;100.00;99949.25;4853655;29;20545;-73
2023/03/23 00:42:49;;;;;;;11.65;7.22;;;;;;;8.65;100.00;99965.28;4849561;29;20033;-73
2023/03/23 00:45:16;;;;;;;12.27;6.75;;;;;;;8.63;100.00;99953.97;4881341;29;20090;-73
2023/03/23 00:47:46;;;;;;;9.98;6.20;;;;;;;8.63;100.00;99959.25;4861856;29;20051;-73
2023/03/23 00:50:13;;;;;;;10.50;6.38;;;;;;;8.63;100.00;99948.69;4880983;29;20041;-73
2023/03/23 00:52:40;;;;;;;11.55;6.53;;;;;;;8.64;100.00;99938.06;4879367;29;20591;-74
2023/03/23 00:55:06;;;;;;;12.95;7.38;;;;;;;8.68;100.00;99928.19;4861594;29;20049;-73
2023/03/23 00:57:32;;;;;;;14.93;8.20;;;;;;;8.71;100.00;99927.19;4874086;29;20041;-73
2023/03/23 00:59:57;;;;;;;13.63;8.63;;;;;;;8.74;100.00;99914.69;4880052;29;20496;-73
2023/03/23 01:02:24;;;;;;;17.85;9.32;;;;;;;8.79;100.00;99911.81;4880724;29;20967;-73
2023/03/23 01:04:52;;;;;;;18.10;10.40;;;;;;;8.84;100.00;99915.06;4881566;29;20067;-74
2023/03/23 01:07:22;;;;;;;18.15;10.48;;;;;;;8.89;100.00;99891.88;4864042;29;20069;-74
2023/03/23 01:09:48;;;;;;;18.20;10.32;;;;;;;8.93;100.00;99903.16;4837251;29;20060;-73
2023/03/23 01:12:14;;;;;;;18.92;10.55;;;;;;;8.97;100.00;99896.75;4863166;29;20048;-73
2023/03/23 01:14:41;;;;;;;20.20;10.90;;;;;;;8.99;100.00;99889.59;4863173;29;20048;-73
2023/03/23 01:17:07;;;;;;;16.48;9.55;;;;;;;9.02;100.00;99891.22;4860319;29;20154;-73
2023/03/23 01:19:32;;;;;;;16.75;9.57;;;;;;;9.02;100.00;99888.59;4862128;29;20056;-73
2023/03/23 01:21:58;;;;;;;15.65;9.05;;;;;;;9.04;100.00;99892.84;4881711;29;20415;-73
2023/03/23 01:24:24;;;;;;;17.48;8.75;;;;;;;9.06;100.00;99877.78;4865007;29;20056;-73
2023/03/23 01:26:49;;;;;;;13.23;8.25;;;;;;;9.07;100.00;99876.88;4865195;29;20040;-73
2023/03/23 01:29:15;;;;;;;17.23;8.45;;;;;;;9.08;100.00;99878.56;4863408;29;20113;-73
2023/03/23 01:31:42;;;;;;;14.20;7.85;;;;;;;9.08;100.00;99870.63;4865378;29;20476;-73
2023/03/23 01:34:10;;;;;;;14.10;7.90;;;;;;;9.08;100.00;99862.72;4842576;29;20072;-73
2023/03/23 01:36:36;;;;;;;13.13;7.50;;;;;;;9.10;100.00;99855.56;4861238;29;20466;-73
2023/03/23 01:39:04;;;;;;;14.43;7.22;;;;;;;9.13;100.00;99861.59;4878410;29;20056;-74
2023/03/23 01:41:30;;;;;;;12.13;6.85;;;;;;;9.15;100.00;99857.09;4880784;29;20048;-73
2023/03/23 01:44:06;;;;;;;13.57;6.97;;;;;;;9.17;100.00;99860.50;4857387;29;20044;-73
2023/03/23 01:46:33;;;;;;;10.80;6.35;;;;;;;9.18;100.00;99857.78;4868034;29;20136;-73
2023/03/23 01:49:21;;;;;;;10.15;6.38;;;;;;;9.20;100.00;99855.03;4880513;29;20052;-73
2023/03/23 01:51:59;;;;;;;13.32;6.28;;;;;;;9.20;100.00;99862.97;4880961;29;20087;-74
2023/03/23 01:54:26;;;;;;;11.02;6.15;;;;;;;9.21;100.00;99859.41;4855699;29;20718;-72
2023/03/23 01:56:57;;;;;;;9.95;6.07;;;;;;;9.21;100.00;99854.97;4867544;29;20076;-73
2023/03/23 01:59:23;;;;;;;8.68;5.57;;;;;;;9.22;100.00;99846.09;4862890;29;20124;-74
2023/03/23 02:01:52;;;;;;;8.43;5.18;;;;;;;9.23;100.00;99839.03;4863894;29;20517;-73
2023/03/23 02:04:18;;;;;;;9.20;5.40;;;;;;;9.24;100.00;99838.97;4881704;29;20480;-73
2023/03/23 02:06:44;;;;;;;7.13;4.95;;;;;;;9.25;100.00;99845.06;4863334;29;20036;-74
2023/03/23 02:09:13;;;;;;;8.18;4.68;;;;;;;9.26;100.00;99841.50;4861369;29;20048;-73
2023/03/23 02:11:39;;;;;;;7.57;4.43;;;;;;;9.27;100.00;99837.94;4867104;29;20056;-73
2023/03/23 02:14:05;;;;;;;7.10;4.30;;;;;;;9.27;100.00;99832.66;4859748;29;20540;-74
2023/03/23 02:16:42;;;;;;;8.02;4.57;;;;;;;9.26;100.00;99830.94;4864987;29;20044;-73
2023/03/23 02:19:35;;;;;;;7.13;4.25;;;;;;;9.25;100.00;99829.22;4868417;29;20153;-73
2023/03/23 02:22:12;;;;;;;;;;;;;;;9.25;100.00;99831.88;4887190;29;20196;-73
2023/03/23 02:25:06;;;;;;;9.50;3.90;;;;;;;9.27;100.00;99837.06;4878516;29;19977;-74
2023/03/23 02:27:56;;;;;;;5.88;4.18;;;;;;;9.27;100.00;99827.38;4881899;29;20056;-74
2023/03/23 02:30:42;;;;;;;8.23;3.97;;;;;;;9.29;100.00;99835.19;4882015;29;20091;-74
2023/03/23 02:33:38;;;;;;;9.27;3.67;;;;;;;9.29;100.00;99825.50;4882821;29;20044;-74
2023/03/23 02:36:29;;;;;;;7.47;4.05;;;;;;;9.30;100.00;99821.91;4881904;29;20408;-73
2023/03/23 02:39:01;;;;;;;7.32;4.03;;;;;;;9.32;100.00;99819.19;4866962;29;20041;-73
2023/03/23 02:41:41;;;;;;;5.53;3.60;;;;;;;9.32;100.00;99822.66;4864607;29;20052;-74
2023/03/23 02:44:07;;;;;;;7.25;4.03;;;;;;;9.34;100.00;99814.66;4869407;29;20043;-76
2023/03/23 02:46:34;;;;;;;6.97;3.90;;;;;;;9.35;100.00;99819.88;4877840;29;20044;-74
2023/03/23 02:49:00;;;;;;;5.90;3.70;;;;;;;9.40;100.00;99809.03;4878161;29;20113;-73
2023/03/23 02:51:26;;;;;;;6.30;3.63;;;;;;;9.44;100.00;99809.69;4879257;29;20064;-73
2023/03/23 02:53:53;;;;;;;5.70;3.42;;;;;;;9.45;100.00;99808.75;4870192;29;20911;-73
2023/03/23 02:56:27;;;;;;;8.05;3.83;;;;;;;9.44;100.00;99807.06;4865731;29;20041;-73
2023/03/23 02:58:54;;;;;;;5.38;3.60;;;;;;;9.44;100.00;99800.00;4865025;29;20564;-73
2023/03/23 03:01:25;;;;;;;7.93;4.07;;;;;;;9.44;100.00;99799.13;4863685;29;20650;-73
2023/03/23 03:03:52;;;;;;;8.23;3.33;;;;;;;9.44;100.00;99800.00;4881983;29;20052;-73
2023/03/23 03:06:50;;;;;;;7.25;3.50;;;;;;;9.44;100.00;99796.50;4877856;29;20060;-73
2023/03/23 03:09:38;;;;;;;4.57;3.00;;;;;;;9.42;100.00;99793.94;4882998;29;20075;-73
2023/03/23 03:12:31;;;;;;;6.95;3.10;;;;;;;9.44;100.00;99815.00;4880151;29;20060;-73
2023/03/23 03:15:09;;;;;;;;;;;;;;;9.47;100.00;99809.50;4855223;29;20052;-73
2023/03/23 03:17:40;;;;;;;3.83;2.63;;;;;;;9.44;100.00;99817.63;4882741;29;20260;-72
2023/03/23 03:20:09;;;;;;;6.32;3.25;;;;;;;9.38;100.00;99819.66;4878194;29;20051;-74
2023/03/23 03:22:37;;;;;;;4.57;2.97;;;;;;;9.33;100.00;99816.44;4863278;29;20670;-73
2023/03/23 03:25:04;;;;;;;4.60;2.80;;;;;;;9.28;100.00;99812.34;4880679;29;20531;-74
2023/03/23 03:27:31;;;;;;;5.20;3.33;;;;;;;9.22;100.00;99813.56;4863859;29;20452;-73
2023/03/23 03:29:59;;;;;;;7.90;3.22;;;;;;;9.18;100.00;99802.31;4883933;29;20076;-73
2023/03/23 03:32:30;;;;;;;6.90;3.13;;;;;;;9.17;100.00;99805.91;4862630;29;20037;-73
2023/03/23 03:35:00;;;;;;;7.35;3.13;;;;;;;9.14;100.00;99806.06;4880633;29;20139;-73
2023/03/23 03:37:26;;;;;;;4.68;3.08;;;;;;;9.12;100.00;99788.59;4880453;29;20523;-73
2023/03/23 03:39:51;;;;;;;5.93;3.10;;;;;;;9.07;100.00;99800.28;4877942;29;20040;-73
2023/03/23 03:42:17;;;;;;;6.60;3.40;;;;;;;9.03;100.00;99787.31;4880826;29;20048;-73
2023/03/23 03:44:42;;;;;;;4.70;3.50;;;;;;;9.01;100.00;99798.00;4875997;29;20127;-73
2023/03/23 03:47:08;;;;;;;7.47;3.75;;;;;;;8.98;100.00;99795.50;4880613;29;20615;-73
2023/03/23 03:49:34;;;;;;;5.55;2.97;;;;;;;8.98;100.00;99798.16;4878664;29;20045;-73
2023/03/23 03:51:59;;;;;;;4.40;3.17;;;;;;;8.95;100.00;99796.53;4865558;29;20052;-73
2023/03/23 03:54:25;;;;;;;9.45;3.72;;;;;;;8.94;100.00;99789.53;4878958;29;20481;-73
2023/03/23 03:56:51;;;;;;;7.30;3.40;;;;;;;8.92;100.00;99801.13;4849877;29;20187;-73
2023/03/23 03:59:17;;;;;;;7.32;2.88;;;;;;;8.89;100.00;99796.03;4877909;29;20048;-73
2023/03/23 04:01:43;;;;;;;5.03;2.70;;;;;;;8.90;100.00;99805.63;4880317;29;20044;-73
2023/03/23 04:04:08;;;;;;;4.28;2.58;;;;;;;8.88;100.00;99811.00;4863862;29;20131;-74
2023/03/23 04:06:35;;;;;;;4.50;2.67;;;;;;;8.89;100.00;99803.94;4878186;29;20044;-73
2023/03/23 04:09:06;;;;;;;5.97;2.67;;;;;;;8.87;100.00;99804.00;4882284;29;20045;-74
2023/03/23 04:11:32;;;;;;;5.82;2.70;;;;;;;8.85;100.00;99800.63;4880126;29;20108;-73
2023/03/23 04:13:58;;;;;;;7.15;2.05;;;;;;;8.82;100.00;99812.19;4877606;29;20061;-73
2023/03/23 04:16:23;;;;;;;9.18;2.42;;;;;;;8.79;100.00;99799.19;4860409;29;20071;-73
2023/03/23 04:18:49;;;;;;;4.57;2.05;;;;;;;8.77;100.00;99801.03;4863683;29;20047;-74
2023/03/23 04:21:15;;;;;;;7.90;2.72;;;;;;;8.75;100.00;99810.81;4848085;29;20084;-73
2023/03/23 04:23:41;;;;;;;5.50;2.58;;;;;;;8.76;100.00;99811.69;4877485;29;20136;-73
2023/03/23 04:26:07;;;;;;;6.53;1.95;;;;;;;8.78;100.00;99810.66;4879902;29;20082;-73
2023/03/23 04:28:33;;;;;;;5.95;2.20;;;;;;;8.79;100.00;99807.09;4861834;29;20045;-73
2023/03/23 04:31:00;;;;;;;6.45;2.40;;;;;;;8.83;100.00;99802.50;4880580;29;20051;-73
2023/03/23 04:33:27;;;;;;;5.25;2.22;;;;;;;8.83;100.00;99807.78;4861693;29;20052;-73
2023/03/23 04:35:54;;;;;;;5.25;1.70;;;;;;;8.85;100.00;99808.53;4864269;29;20108;-71
2023/03/23 04:38:23;;;;;;;6.03;1.90;;;;;;;8.87;100.00;99805.81;4856902;29;20048;-73
2023/03/23 04:40:52;;;;;;;7.15;1.77;;;;;;;8.90;100.00;99819.69;4876200;29;20032;-73
2023/03/23 04:43:21;;;;;;;6.03;1.50;;;;;;;8.90;100.00;99818.84;4878215;29;20046;-73
2023/03/23 04:45:55;;;;;;;7.65;1.98;;;;;;;8.90;100.00;99821.47;4874965;29;20049;-73
2023/03/23 04:48:30;;;;;;;5.55;1.52;;;;;;;8.89;100.00;99828.53;4863768;29;20059;-72
2023/03/23 04:50:55;;;;;;;5.18;1.90;;;;;;;8.91;100.00;99812.63;4865076;29;20119;-73
2023/03/23 04:53:21;;;;;;;5.00;1.67;;;;;;;8.88;100.00;99816.28;4860586;29;21335;-73
2023/03/23 04:55:48;;;;;;;8.13;2.22;;;;;;;8.86;100.00;99819.94;4877939;29;20143;-73
2023/03/23 04:58:15;;;;;;;7.43;2.35;;;;;;;8.81;100.00;99821.06;4862681;29;20040;-73
2023/03/23 05:00:43;;;;;;;8.25;2.13;;;;;;;8.79;100.00;99829.97;4878781;29;20457;-73
2023/03/23 05:03:10;;;;;;;3.75;1.70;;;;;;;8.76;100.00;99828.34;4845342;29;20040;-73
2023/03/23 05:05:36;;;;;;;6.32;1.83;;;;;;;8.74;100.00;99832.00;4879840;29;20062;-73
2023/03/23 05:08:02;;;;;;;8.18;2.08;;;;;;;8.69;100.00;99833.13;4863013;29;20147;-73
2023/03/23 05:10:28;;;;;;;7.93;2.35;;;;;;;8.67;100.00;99834.16;4844881;29;20578;-73
2023/03/23 05:12:54;;;;;;;9.32;1.73;;;;;;;8.67;100.00;99844.69;4874452;29;20044;-73
2023/03/23 05:15:20;;;;;;;6.95;2.13;;;;;;;8.64;100.00;99852.75;4874473;29;20108;-73
2023/03/23 05:17:45;;;;;;;13.73;2.35;;;;;;;8.60;100.00;99844.16;4878404;29;20246;-73
2023/03/23 05:20:19;;;;;;;7.25;1.77;;;;;;;8.58;100.00;99853.94;4880655;29;20424;-73
2023/03/23 05:22:49;;;;;;;9.70;2.40;;;;;;;8.55;100.00;99854.09;4880214;29;20055;-73
2023/03/23 05:25:15;;;;;;;8.98;1.75;;;;;;;8.52;100.00;99849.00;4859774;29;20079;-73
2023/03/23 05:27:47;;;;;;;12.25;2.50;;;;;;;8.50;100.00;99866.66;4875433;29;20100;-73
2023/03/23 05:30:16;;;;;;;8.23;2.20;;;;;;;8.51;100.00;99857.81;4876312;29;21279;-74
2023/03/23 05:32:43;;;;;;;6.95;1.70;;;;;;;8.50;100.00;99870.13;4878863;29;20052;-73
2023/03/23 05:35:08;;;;;;;11.35;2.38;;;;;;;8.50;100.00;99875.41;4878527;29;20040;-72
2023/03/23 05:37:34;;;;;;;9.15;2.70;;;;;;;8.47;100.00;99865.03;4881097;29;20071;-73
2023/03/23 05:40:05;;;;;;;7.47;2.42;;;;;;;8.46;100.00;99879.16;4878636;29;20044;-73
2023/03/23 05:42:32;;;;;;;12.52;2.38;;;;;;;8.48;100.00;99887.84;4876905;29;20057;-74
2023/03/23 05:44:58;;;;;;;12.55;1.92;;;;;;;8.48;100.00;99893.13;4861386;29;20466;-73
2023/03/23 05:47:25;;;;;;;4.95;2.00;;;;;;;8.47;100.00;99888.78;4848864;29;21632;-73
2023/03/23 05:49:51;;;;;;;14.52;2.45;;;;;;;8.49;100.00;99883.44;4863428;29;20062;-73
2023/03/23 05:52:18;;;;;;;8.35;1.70;;;;;;;8.50;100.00;99893.88;4869774;29;20056;-73
2023/03/23 05:54:44;;;;;;;10.20;1.77;;;;;;;8.51;100.00;99908.81;4861336;29;20132;-73
2023/03/23 05:57:10;;;;;;;11.52;3.17;;;;;;;8.53;100.00;99922.78;4861615;29;20048;-73
2023/03/23 05:59:36;;;;;;;13.10;2.53;;;;;;;8.53;100.00;99909.59;4847241;29;20072;-73
2023/03/23 06:02:02;;;;;;;11.15;1.83;;;;;;;8.41;100.00;99897.84;4875641;29;20139;-73
2023/03/23 06:04:28;;;;;;;14.27;2.42;;;;;;;8.28;100.00;99918.72;4877033;29;20594;-73
2023/03/23 06:06:53;;;;;;;4.65;1.10;;;;;;;8.16;100.00;99908.78;4878166;29;20056;-73
2023/03/23 06:09:19;;;;;;;6.05;1.13;;;;;;;8.05;100.00;99911.97;4860698;29;20048;-73
2023/03/23 06:11:45;;;;;;;4.00;1.20;;;;;;;7.96;100.00;99907.16;4859865;29;20056;-73
2023/03/23 06:14:13;;;;;;;4.60;1.08;;;;;;;7.90;100.00;99902.19;4878441;29;20084;-73
2023/03/23 06:16:39;;;;;;;4.57;1.13;;;;;;;7.86;100.00;99898.84;4860490;29;21755;-73
2023/03/23 06:19:04;;;;;;;7.32;1.88;;;;;;;7.86;100.00;99907.59;4856504;29;20128;-72
2023/03/23 06:21:31;;;;;;;6.00;1.50;;;;;;;7.85;100.00;99919.06;4879872;29;20131;-75
2023/03/23 06:23:59;;;;;;;9.15;2.10;;;;;;;7.85;100.00;99920.88;4863245;29;20048;-72
2023/03/23 06:26:28;;;;;;;6.03;1.35;;;;;;;7.84;100.00;99927.09;4862855;29;20053;-72
2023/03/23 06:28:54;;;;;;;6.10;1.35;;;;;;;7.82;100.00;99926.28;4860214;29;20037;-72
2023/03/23 06:31:20;;;;;;;11.05;2.08;;;;;;;7.82;100.00;99924.50;4860715;29;21040;-72
2023/03/23 06:33:47;;;;;;;8.75;1.60;;;;;;;7.85;100.00;99934.06;4849785;29;20071;-72
2023/03/23 06:36:13;;;;;;;4.40;1.10;;;;;;;7.89;100.00;99935.59;4876218;29;20528;-72
2023/03/23 06:38:38;;;;;;;6.45;1.55;;;;;;;7.94;100.00;99946.78;4875747;29;20048;-72
2023/03/23 06:41:04;;;;;;;9.25;1.83;;;;;;;8.00;100.00;99949.13;4878387;29;20051;-72
2023/03/23 06:43:39;;;;;;;8.98;2.00;;;;;;;8.07;100.00;99954.09;4874352;29;20076;-72
2023/03/23 06:46:08;;;;;;;10.35;2.38;;;;;;;8.12;100.00;99965.25;4877086;29;20039;-72
2023/03/23 06:48:33;;;;;;;11.27;2.55;;;;;;;8.17;100.00;99967.66;4879688;29;20681;-72
2023/03/23 06:50:59;;;;;;;8.55;2.08;;;;;;;8.22;100.00;99971.78;4880742;29;20060;-72
2023/03/23 06:53:24;;;;;;;12.45;2.60;;;;;;;8.25;100.00;99965.50;4876614;29;20061;-73
2023/03/23 06:55:50;;;;;;;10.95;2.70;;;;;;;8.26;100.00;99968.06;4884357;29;20056;-72
2023/03/23 06:58:16;;;;;;;9.82;2.45;;;;;;;8.29;100.00;99973.19;4866423;29;20726;-72
2023/03/23 07:00:41;;;;;;;13.80;2.58;;;;;;;8.31;100.00;99977.50;4868578;29;20052;-72
2023/03/23 07:03:08;;;;;;;9.18;3.10;;;;;;;8.33;100.00;99986.22;4877493;29;20063;-71
2023/03/23 07:05:34;;;;;;;14.77;2.13;;;;;;;8.34;100.00;99985.28;4832305;29;20061;-72
2023/03/23 07:08:03;;;;;;;7.43;2.15;;;;;;;8.38;100.00;99973.63;4858056;29;20076;-72
2023/03/23 07:10:29;;;;;;;8.88;2.33;;;;;;;8.41;100.00;99976.13;4862423;29;20052;-71
2023/03/23 07:12:55;;;;;;;12.15;2.25;;;;;;;8.42;100.00;99976.06;4835317;29;20128;-72
2023/03/23 07:15:20;;;;;;;13.77;2.53;;;;;;;8.45;100.00;99977.69;4877191;29;20055;-72
2023/03/23 07:17:47;;;;;;;10.23;2.35;;;;;;;8.47;100.00;99978.47;4879533;29;20051;-72
2023/03/23 07:20:13;;;;;;;12.20;2.40;;;;;;;8.49;100.00;99981.88;4857841;29;20086;-72
2023/03/23 07:22:38;;;;;;;13.77;2.80;;;;;;;8.52;100.00;99981.78;4855754;29;20413;-72
2023/03/23 07:25:04;;;;;;;14.68;2.70;;;;;;;8.58;100.00;99987.66;4872267;29;20065;-72
2023/03/23 07:27:30;;;;;;;11.32;2.00;;;;;;;8.62;100.00;99984.78;4865351;29;20102;-72
2023/03/23 07:29:57;;;;;;;9.45;2.20;;;;;;;8.68;100.00;99994.19;4867614;29;21894;-74
2023/03/23 07:32:23;;;;;;;6.30;2.25;;;;;;;8.69;100.00;99998.50;4878560;29;20424;-74
2023/03/23 07:34:56;;;;;;;13.00;3.25;;;;;;;8.69;100.00;99996.75;4879436;29;20056;-74
2023/03/23 07:37:22;;;;;;;19.95;2.80;;;;;;;8.69;100.00;100002.03;4854344;29;20065;-72
2023/03/23 07:39:48;;;;;;;12.65;2.65;;;;;;;8.69;100.00;100001.16;4861332;29;20048;-74
2023/03/23 07:42:13;;;;;;;11.63;2.08;;;;;;;8.68;100.00;99994.19;4863134;29;20055;-74
2023/03/23 07:44:39;;;;;;;10.13;2.50;;;;;;;8.68;100.00;100005.56;4859422;29;20060;-74
2023/03/23 07:47:05;;;;;;;13.20;2.95;;;;;;;8.68;100.00;100010.00;4877836;29;20108;-73
2023/03/23 07:49:30;;;;;;;12.45;2.53;;;;;;;8.67;100.00;100009.13;4877962;29;20519;-74
2023/03/23 07:51:57;;;;;;;11.43;2.45;;;;;;;8.68;100.00;99991.53;4861843;29;20493;-73
2023/03/23 07:54:24;;;;;;;13.52;2.47;;;;;;;8.72;100.00;100008.06;4877921;29;20099;-73
2023/03/23 07:56:49;;;;;;;15.50;2.47;;;;;;;8.76;100.00;100010.47;4889216;29;20112;-75
2023/03/23 07:59:15;;;;;;;17.48;2.33;;;;;;;8.78;100.00;100013.03;4883826;29;20055;-74
2023/03/23 08:01:40;;;;;;;13.38;3.22;;;;;;;8.81;100.00;100026.06;4881349;29;20052;-75
2023/03/23 08:04:07;;;;;;;14.95;2.45;;;;;;;8.82;100.00;100023.34;4865308;29;20490;-74
2023/03/23 08:06:33;;;;;;;10.57;2.30;;;;;;;8.85;100.00;100024.13;4884164;29;20441;-73
2023/03/23 08:08:59;;;;;;;18.33;4.35;;;;;;;8.83;100.00;100022.41;4886700;29;20064;-73
2023/03/23 08:11:26;;;;;;;12.00;2.75;;;;;;;8.85;100.00;100021.47;4866101;29;20449;-74
2023/03/23 08:13:52;;;;;;;10.20;2.33;;;;;;;8.83;100.00;100030.31;4868396;29;20728;-74
2023/03/23 08:16:19;;;;;;;8.85;2.30;;;;;;;8.85;100.00;100032.03;4874549;29;20060;-74
2023/03/23 08:18:45;;;;;;;13.35;2.70;;;;;;;8.85;100.00;100032.03;4885514;29;20064;-74
2023/03/23 08:21:12;;;;;;;9.70;2.28;;;;;;;8.83;100.00;100025.06;4869217;29;20197;-74
2023/03/23 08:23:38;;;;;;;11.25;2.78;;;;;;;8.83;100.00;100034.78;4869060;29;20108;-76
2023/03/23 08:26:06;;;;;;;14.70;2.35;;;;;;;8.89;100.00;100037.06;4882345;29;20357;-75
2023/03/23 08:28:35;;;;;;;7.35;2.05;;;;;;;8.99;100.00;100042.72;4876124;29;20591;-74
2023/03/23 08:31:07;;;;;;;17.38;2.88;;;;;;;9.10;100.00;100045.69;4879703;29;20092;-76
2023/03/23 08:33:33;;;;;;;10.55;2.08;;;;;;;9.18;100.00;100045.28;4864178;29;20453;-76
2023/03/23 08:35:59;;;;;;;17.45;2.60;;;;;;;9.25;100.00;100045.81;4860223;29;20501;-76
2023/03/23 08:38:25;;;;;;;19.80;2.78;;;;;;;9.32;100.00;100046.34;4882305;29;20080;-73
2023/03/23 08:40:52;;;;;;;12.10;3.15;;;;;;;9.38;100.00;100060.06;4883341;29;20171;-75
2023/03/23 08:43:18;;;;;;;10.38;2.38;;;;;;;9.45;100.00;100062.38;4882959;29;20040;-74
2023/03/23 08:45:44;;;;;;;13.75;3.13;;;;;;;9.51;100.00;100056.78;4866065;29;20057;-76
2023/03/23 08:48:10;;;;;;;16.95;3.45;;;;;;;9.56;100.00;100054.75;4866077;29;20488;-74
2023/03/23 08:50:36;;;;;;;10.77;2.22;;;;;;;9.61;100.00;100050.09;4863394;29;20565;-72
2023/03/23 08:53:02;;;;;;;13.18;2.58;;;;;;;9.67;100.00;100062.09;4829123;29;20080;-72
2023/03/23 08:55:28;;;;;;;17.60;3.28;;;;;;;9.71;100.00;100052.22;4875218;29;20052;-72
2023/03/23 08:57:53;;;;;;;11.70;2.47;;;;;;;9.73;100.00;100067.06;4873067;29;20416;-73
2023/03/23 09:00:22;;;;;;;12.75;3.03;;;;;;;9.79;100.00;100073.78;4869067;29;20081;-72
2023/03/23 09:02:48;;;;;;;10.48;1.92;;;;;;;9.80;100.00;100064.09;4874536;29;20092;-72
2023/03/23 09:05:19;;;;;;;14.77;2.78;;;;;;;9.82;100.00;100068.34;4873443;29;20061;-72
2023/03/23 09:07:48;;;;;;;8.68;2.40;;;;;;;9.89;100.00;100061.78;4876523;29;20056;-72
2023/03/23 09:10:14;;;;;;;17.35;2.60;;;;;;;9.92;100.00;100061.59;4856938;29;21096;-72
2023/03/23 09:12:41;;;;;;;9.68;2.80;;;;;;;9.94;100.00;100063.31;4852039;29;20501;-72
2023/03/23 09:15:08;;;;;;;17.38;3.00;;;;;;;9.92;100.00;100068.69;4852668;29;20493;-71
2023/03/23 09:17:38;;;;;;;13.32;2.15;;;;;;;9.92;100.00;100066.06;4851102;29;20500;-72
2023/03/23 09:20:10;;;;;;;16.23;2.47;;;;;;;9.97;100.00;100068.44;4874449;29;20032;-72
2023/03/23 09:22:36;;;;;;;13.48;2.55;;;;;;;10.00;100.00;100084.13;4873536;29;20211;-72
2023/03/23 09:25:02;;;;;;;11.57;2.45;;;;;;;10.03;100.00;100073.41;4865411;29;20058;-72
2023/03/23 09:27:27;;;;;;;12.75;2.95;;;;;;;10.11;100.00;100091.47;4851234;29;20674;-73
2023/03/23 09:29:55;;;;;;;9.50;2.30;;;;;;;10.16;100.00;100082.34;4871174;29;20052;-72
2023/03/23 09:32:22;;;;;;;11.10;2.20;;;;;;;10.27;100.00;100091.47;4870871;29;20052;-72
2023/03/23 09:34:48;;;;;;;13.43;2.30;;;;;;;10.31;100.00;100087.72;4868624;29;20135;-72
2023/03/23 09:37:14;;;;;;;12.88;2.35;;;;;;;10.37;100.00;100082.09;4871146;29;20053;-72
2023/03/23 09:39:39;;;;;;;11.13;2.28;;;;;;;10.41;100.00;100088.88;4864758;29;20056;-72
2023/03/23 09:42:17;;;;;;;10.52;2.40;;;;;;;10.43;100.00;100086.19;4838794;29;20040;-72
2023/03/23 09:44:56;;;;;;;8.77;2.63;;;;;;;10.42;100.00;100093.25;4865784;29;20048;-73
2023/03/23 09:47:31;;;;;;;11.00;2.40;;;;;;;10.52;100.00;100085.66;4865436;29;21330;-72
2023/03/23 09:50:00;;;;;;;13.75;2.60;;;;;;;10.59;100.00;100102.06;4857425;29;20085;-72
2023/03/23 09:52:51;;;;;;;12.32;1.92;;;;;;;10.66;100.00;100100.75;4876076;29;20115;-72
2023/03/23 09:55:18;;;;;;;15.73;2.97;;;;;;;10.65;100.00;100093.75;4868523;29;20044;-72
2023/03/23 09:57:52;;;;;;;9.05;2.42;;;;;;;10.52;100.00;100100.69;4854901;29;20058;-72
2023/03/23 10:00:24;;;;;;;12.23;2.20;;;;;;;10.42;100.00;100109.13;4872085;29;20113;-72
2023/03/23 10:03:12;;;;;;;10.80;2.47;;;;;;;10.33;100.00;100102.56;4859859;29;20828;-72
2023/03/23 10:05:42;;;;;;;6.78;1.75;;;;;;;10.33;100.00;100101.69;4868359;29;20112;-72
2023/03/23 10:08:17;;;;;;;12.63;2.50;;;;;;;10.30;100.00;100107.19;4867424;29;20060;-72
2023/03/23 10:11:04;;;;;;;16.23;2.47;;;;;;;10.27;100.00;100108.19;4866962;29;20651;-71
2023/03/23 10:13:49;;;;;;;13.50;2.33;;;;;;;10.22;100.00;100110.25;4868023;29;20052;-72
2023/03/23 10:16:24;;;;;;;13.48;2.53;;;;;;;10.21;100.00;100112.97;4871502;29;20540;-72
2023/03/23 10:19:05;;;;;;;14.68;2.30;;;;;;;10.18;100.00;100122.78;4871358;29;20040;-72
2023/03/23 10:21:32;;;;;;;11.48;2.13;;;;;;;10.17;100.00;100115.78;4852656;29;20788;-72
2023/03/23 10:24:03;;;;;;;12.13;2.03;;;;;;;10.16;100.00;100119.38;4851123;29;20089;-72
2023/03/23 10:27:07;;;;;;;11.90;2.50;;;;;;;10.16;100.00;100119.38;4856015;29;20211;-72
2023/03/23 10:29:54;;;;;;;;;;;;;;;10.16;100.00;100111.44;4872131;29;20186;-72
2023/03/23 10:32:40;;;;;;;10.68;2.00;;;;;;;10.12;100.00;100111.69;4871576;29;19934;-72
2023/03/23 10:35:11;;;;;;;9.85;2.17;;;;;;;10.05;100.00;100108.53;4853059;29;20131;-71
2023/03/23 10:37:40;;;;;;;11.02;2.50;;;;;;;10.03;100.00;100126.28;4855116;29;21552;-72
2023/03/23 10:40:14;;;;;;;10.35;2.03;;;;;;;10.02;100.00;100124.59;4857250;29;20140;-72
2023/03/23 10:42:40;;;;;;;13.20;2.22;;;;;;;10.01;100.00;100115.78;4872441;29;20051;-72
2023/03/23 10:45:13;;;;;;;6.80;2.00;;;;;;;10.03;100.00;100115.72;4875879;29;20672;-72
2023/03/23 10:47:42;;;;;;;11.23;2.53;;;;;;;10.07;100.00;100121.69;4877584;29;20071;-72
2023/03/23 10:50:13;;;;;;;12.52;2.50;;;;;;;10.14;100.00;100133.63;4873134;29;20047;-73
2023/03/23 10:52:44;;;;;;;17.55;1.90;;;;;;;10.16;100.00;100121.16;4877690;29;20040;-72
2023/03/23 10:55:16;;;;;;;7.55;1.70;;;;;;;10.19;100.00;100116.56;4877050;29;20053;-72
2023/03/23 10:57:44;;;;;;;10.15;1.50;;;;;;;10.26;100.00;100126.78;4880569;29;20354;-72
2023/03/23 11:00:28;;;;;;;10.20;1.58;;;;;;;10.37;100.00;100135.00;4881505;29;20143;-73
2023/03/23 11:02:59;;;;;;;9.27;1.95;;;;;;;10.41;100.00;100139.16;4860098;29;20044;-73
2023/03/23 11:05:32;;;;;;;8.52;1.77;;;;;;;10.54;100.00;100135.88;4879391;29;20171;-72
2023/03/23 11:07:59;;;;;;;9.57;2.10;;;;;;;10.71;100.00;100133.13;4881710;29;21192;-73
2023/03/23 11:10:26;;;;;;;6.47;1.35;;;;;;;10.80;100.00;100133.53;4861540;29;20036;-73
2023/03/23 11:12:54;;;;;;;8.02;2.42;;;;;;;10.92;100.00;100132.81;4877324;29;20048;-73
2023/03/23 11:15:32;;;;;;;9.65;2.00;;;;;;;11.07;100.00;100128.41;4875256;29;20160;-73
2023/03/23 11:18:13;;;;;;;11.38;2.13;;;;;;;11.19;100.00;100131.28;4877300;29;20756;-73
2023/03/23 11:20:43;;;;;;;6.47;1.58;;;;;;;11.30;100.00;100128.84;4879416;29;20049;-72
2023/03/23 11:23:20;;;;;;;4.63;1.40;;;;;;;11.35;100.00;100137.38;4864777;29;20052;-73
2023/03/23 11:26:28;;;;;;;6.85;1.92;;;;;;;11.43;100.00;100130.75;4882613;29;20036;-72
2023/03/23 11:29:17;;;;;;;10.90;1.83;;;;;;;11.53;100.00;100123.94;4824254;29;20346;-72
2023/03/23 11:31:45;;;;;;;9.13;1.60;;;;;;;11.64;100.00;100132.09;4878484;29;20048;-72
2023/03/23 11:34:17;;;;;;;5.50;1.60;;;;;;;11.73;100.00;100133.34;4873913;29;20063;-72